Zaliv Amurskiy — D5MC6 — position and weather

sailwx.info

Track history (hours):
 
Tides and Currents Weather Stations Pressure Air Temp Water Temp Dewpoint Dewpoint Depression Visibility Wind Speed Wind Dir Waves Ship Positions

Zaliv Amurskiy

Last reported at 2017-Nov-24 06:00 UTC. Time now 2017-Nov-24 07:34 UTC.
Position S 34°00' E 151°14'.

Length 244 m; draft 14.1 m.

Type: Tanker. MMSI: 636017658.

Date/timePositionNaut miles runAvg speedWind from/ knotsBaromVisibWave heightAir tempDewpointWater temp
2017-Nov-24 06:00S 34°00' E 151°14'5 9.5
2017-Nov-24 05:28S 34°01' E 151°21'3 7.2
2017-Nov-24 05:00S 33°59' E 151°24'4 8.5
2017-Nov-24 04:28S 33°57' E 151°29'611.9
2017-Nov-24 04:00S 33°54' E 151°34'912.6
2017-Nov-24 03:16S 33°48' E 151°43'4312.3
2017-Nov-23 23:48S 33°21' E 152°23'412.2
2017-Nov-23 23:31S 33°19' E 152°26'2512.3
2017-Nov-23 21:28S 32°58' E 152°43'813.0
2017-Nov-23 20:52S 32°51' E 152°47'713.5
2017-Nov-23 20:20S 32°45' E 152°51'413.6
2017-Nov-23 20:01S 32°41' E 152°53'813.2
2017-Nov-23 19:26S 32°34' E 152°57'  
Track history (hours):
 
Tides and Currents Weather Stations Pressure Air Temp Water Temp Dewpoint Dewpoint Depression Visibility Wind Speed Wind Dir Waves Ship Positions

Zaliv Amurskiy

Last reported at 2017-Nov-24 06:00 UTC. Time now 2017-Nov-24 07:34 UTC.
Position S 34°00' E 151°14'.

Length 244 m; draft 14.1 m.

Type: Tanker. MMSI: 636017658.

Date/timePositionNaut miles runAvg speedWind from/ knotsBaromVisibWave heightAir tempDewpointWater temp
2017-Nov-24 06:00S 34°00' E 151°14'5 9.5
2017-Nov-24 05:28S 34°01' E 151°21'3 7.2
2017-Nov-24 05:00S 33°59' E 151°24'4 8.5
2017-Nov-24 04:28S 33°57' E 151°29'611.9
2017-Nov-24 04:00S 33°54' E 151°34'912.6
2017-Nov-24 03:16S 33°48' E 151°43'4312.3
2017-Nov-23 23:48S 33°21' E 152°23'412.2
2017-Nov-23 23:31S 33°19' E 152°26'2512.3
2017-Nov-23 21:28S 32°58' E 152°43'813.0
2017-Nov-23 20:52S 32°51' E 152°47'713.5
2017-Nov-23 20:20S 32°45' E 152°51'413.6
2017-Nov-23 20:01S 32°41' E 152°53'813.2
2017-Nov-23 19:26S 32°34' E 152°57'  

Dump ship's entire track history